Squad war stats
Faction Empire
Rank 89
TrueSkill™ 29,103
Reputation 18,402
Wars 314
Wins 229
Draws 33
Losses 52
Uplinks captured 13,120
Uplinks saved 5,898
Last updated 1 day ago
Mu 29.138
Sigma 0.010
Last War 5d
Current War none
Battle history
Date Opp. skill Opponent Result Score Opp. score Skill result Skill before Mu before Sigma before
2018-12-07 97% TaunTaun.Hunters WIN 45 17 0 29103 29.138 0.010
2018-12-04 97% ROGUE-SCOUNDRELS WIN 45 32 0 29127 29.138 0.003
2018-12-01 102% NewOrder-Jedi DRAW 38 38 +702 28425 28.713 0.082
2018-11-29 98% LeadingEmpire WIN 45 5 +20 28405 28.702 0.085
2018-11-22 100% Wookie-Clan WIN 45 25 0 28405 28.702 0.085
2018-11-20 100% OuterRimRioters WIN 45 41 +12 28393 28.700 0.088
2018-11-18 100% BlackWingShadow LOSS 42 45 -5 28398 28.755 0.102
2018-11-15 100% JEDI.NIGHTS WIN 45 37 +7 28391 28.753 0.104
2018-11-13 99% Poland-Rogue-One WIN 45 7 0 28391 28.753 0.104
2018-11-11 90% Snow-walkers WIN 45 25 +6 28385 28.749 0.104
2018-11-09 100% mexicorebel WIN 45 10 +1 28384 28.749 0.104
2018-11-07 100% Texas_Battalion WIN 39 30 +1 28383 28.749 0.104
2018-11-04 50% JediMasteR WIN 45 4 +1 28382 28.747 0.104
2018-11-01 97% RancorRoughnecks WIN 45 5 +13 28369 28.741 0.106
2018-10-29 96% KillerFrogs WIN 45 0 +13 28356 28.734 0.108
2018-10-25 100% SpaceBarons WIN 45 43 +18 28338 28.730 0.112
2018-10-22 92% viajeros-LF WIN 43 40 +17 28321 28.716 0.113
2018-10-18 101% Blackwingrebels WIN 40 31 +55 28266 28.703 0.125
2018-10-16 99% USA-Rebel-Adults WIN 44 38 +74 28192 28.673 0.138
2018-10-13 101% Argentina-Rogue1 WIN 45 23 +20 28172 28.669 0.142
2018-10-05 98% JediJumpCrew LOSS 41 45 -519 29181 29.196 0.004
2018-10-03 91% Canada.Edmonton LOSS 32 38 0 29181 29.196 0.004
2018-09-29 100% SkywalkersPride DRAW 45 45 0 29181 29.196 0.004
2018-09-26 95% Chile-Sur WIN 42 17 0 29181 29.196 0.004
2018-09-24 97% FinnLuke WIN 45 4 0 29181 29.196 0.004
2018-09-22 92% Rogue_Elite WIN 45 7 0 29181 29.196 0.004
2018-09-19 64% Rebelles_france1 WIN 43 19 0 29181 29.196 0.004
2018-09-17 97% Galaxy_of_Heroes WIN 45 9 0 29181 29.196 0.004
2018-09-15 88% A_New_Hope_1 LOSS 41 42 0 29181 29.196 0.004
2018-09-13 98% Force_Unchained DRAW 45 45 0 29181 29.196 0.004
2018-09-09 96% Quebec_rebelle_a WIN 45 37 0 29181 29.196 0.004
2018-09-07 103% TheMidnightMob LOSS 34 45 0 29181 29.196 0.004
2018-09-05 97% DETROIT♤players WIN 44 37 0 29181 29.196 0.004
2018-09-02 90% Françaisrebelle WIN 45 2 0 29181 29.196 0.004
2018-08-31 90% Donation WIN 45 5 0 29181 29.196 0.004
2018-08-29 98% Iron_Rebels_Alph WIN 37 35 0 29181 29.196 0.004
2018-08-26 98% Jedi_Remnant WIN 43 40 0 29181 29.196 0.004
2018-08-23 72% ThreeInchPunch WIN 45 10 0 29181 29.196 0.004
2018-08-21 74% Paradise-Lost WIN 45 28 0 29181 29.196 0.004
2018-08-18 97% SourceOfTheForce WIN 45 26 0 29181 29.196 0.004
2018-08-16 91% Fullsupport WIN 45 0 0 29181 29.196 0.004
2018-08-13 87% Hurtinem2.0 WIN 45 21 +1 29180 29.196 0.004
2018-08-10 100% PartyLikeLando LOSS 36 38 0 29180 29.196 0.004
2018-08-07 101% W.A.R.Mavericks DRAW 45 45 0 29180 29.196 0.004
2018-08-05 96% Angband WIN 45 3 0 29180 29.196 0.004
2018-08-03 88% Forlorn-Hope WIN 45 24 0 29180 29.196 0.004
2018-08-01 98% BattleRax WIN 45 34 0 29180 29.196 0.004
2018-07-27 102% PartylikePorkins LOSS 40 45 0 29180 29.196 0.004
2018-07-25 97% Skyfire WIN 45 20 0 29180 29.196 0.004
2018-07-23 94% Dragon-Battalion DRAW 34 34 0 29180 29.196 0.004
2018-07-21 102% Marauders-Bravo LOSS 33 44 0 29180 29.196 0.004
2018-07-17 102% AmericaSur LOSS 22 45 0 29180 29.196 0.004
2018-07-15 97% Return2Power WIN 45 9 0 29180 29.196 0.004
2018-07-13 95% ConsejoJediChile WIN 45 26 0 29180 29.196 0.004
2018-07-11 97% OdinsRavens WIN 45 8 0 29180 29.196 0.004
2018-07-08 99% KenobiForce WIN 29 28 0 29180 29.196 0.004
2018-07-03 96% Kenobis_Raiders WIN 44 2 0 29180 29.196 0.004
2018-06-30 90% Ewokalypse_ WIN 45 0 0 29180 29.196 0.004
2018-06-27 100% Han's-watchman WIN 42 35 0 29180 29.195 0.004
2018-06-24 97% Jedi-Warship WIN 45 8 0 29180 29.195 0.004
2018-06-22 94% Rebel_Terror WIN 45 6 0 29180 29.195 0.004
2018-06-19 102% PartylikeChewy DRAW 45 45 0 29180 29.195 0.004
2018-06-15 98% AustralianDigger DRAW 45 45 0 29180 29.195 0.004
2018-06-12 98% Active_Group WIN 45 20 0 29180 29.195 0.004
2018-06-10 98% W.A.R.Younglings WIN 45 17 0 29180 29.195 0.004
2018-06-06 101% Czech.Prometheus DRAW 42 42 +10 29170 29.186 0.004
2018-06-03 97% GreeceWarriors WIN 45 0 0 29170 29.186 0.004
2018-06-01 101% LatinoFamily LOSS 34 45 0 29170 29.186 0.004
2018-05-29 102% KARNAGE DRAW 45 45 0 29170 29.186 0.004
2018-05-26 102% SpaceBarons LOSS 32 45 0 29170 29.186 0.004
2018-05-23 98% TheForce'sHand WIN 45 2 0 29170 29.186 0.004
2018-05-19 99% havoc_rebellion DRAW 45 45 0 29170 29.186 0.004
2018-05-16 99% Britain2.0 WIN 37 25 0 29170 29.186 0.004
2018-05-11 101% Italia-HanSolo2 LOSS 42 44 0 29170 29.186 0.004
2018-05-09 98% windows-revenge WIN 45 36 0 29170 29.186 0.004
2018-05-03 99% Blackwingrebels WIN 45 34 0 29170 29.186 0.004
2018-04-30 102% W.A.R.Yoda LOSS 41 45 0 29170 29.186 0.004
2018-04-28 100% Madridatope DRAW 45 45 0 29170 29.186 0.004
2018-04-26 96% FrenchGladiators WIN 45 17 0 29170 29.186 0.004
2018-04-22 93% SingaporeJedi LOSS 28 45 0 29170 29.186 0.004
2018-04-19 95% Ackbar's_Fist WIN 45 11 0 29170 29.186 0.004
2018-04-17 91% Templar_Origins WIN 45 18 0 29170 29.186 0.004
2018-04-14 100% Iron_Rebels_Elit LOSS 44 45 0 29170 29.186 0.004
2018-04-12 94% Padawans-LF WIN 45 8 0 29170 29.186 0.004
2018-04-10 100% Jedi-Warlords WIN 45 32 +25 29145 29.167 0.006
2018-04-07 100% YodasMarines DRAW 45 45 0 29145 29.167 0.006
2018-04-05 92% FranceMaitreJedi WIN 44 29 0 29145 29.167 0.006
2018-04-02 98% BattleRaxChaos WIN 45 23 0 29145 29.167 0.006
2018-03-30 100% ULTRAS-Reborn DRAW 45 45 0 29145 29.167 0.006
2018-03-27 101% ElvenRebels WIN 41 29 +13 29132 29.155 0.006
2018-03-24 102% GummyBears LOSS 30 45 0 29132 29.155 0.006
2018-03-22 102% SkywalkersPride DRAW 45 45 0 29132 29.155 0.006
2018-03-20 94% HeavySaber WIN 45 26 0 29132 29.155 0.006
2018-03-17 99% Force_Unchained LOSS 42 45 -277 29409 29.453 0.013
2018-03-15 102% n7specters DRAW 39 39 +30 29379 29.424 0.013
2018-03-12 99% Havoc_Legends WIN 36 20 0 29379 29.424 0.013
2018-03-10 99% Force_Unchained DRAW 45 45 0 29379 29.424 0.013
2018-03-07 100% Czech.Prometheus WIN 33 32 +4 29375 29.420 0.013
2018-03-05 97% Don-da-Don WIN 45 22 0 29375 29.420 0.013
2018-03-03 97% Resistência-BR WIN 45 41 +1 29374 29.420 0.013
2018-02-28 100% YodasMarines WIN 40 32 0 29374 29.420 0.013
2018-02-26 97% n7wraithsquadron WIN 45 33 0 29374 29.420 0.013
2018-02-24 98% Sudamerican_jedi LOSS 42 45 -450 29824 29.935 0.032
2018-02-21 98% RedSquadron383 WIN 45 17 0 29824 29.935 0.032
2018-02-18 97% Havoc_Legends WIN 45 38 0 29824 29.935 0.032
2018-02-16 95% BlueSaberJedi WIN 42 27 +1 29823 29.934 0.032
2018-02-13 98% SeattleRebels WIN 45 3 0 29823 29.934 0.032
2018-02-11 95% Han's-watchman LOSS 32 34 -3 29826 29.938 0.032
2018-02-08 79% POLAND®1 WIN 45 13 0 29826 29.937 0.032
2018-02-06 97% BattleRaxChaos WIN 45 38 0 29826 29.937 0.032
2018-02-04 91% Brasil:-))SP WIN 45 31 0 29826 29.937 0.032
2018-02-01 98% Texas_Battalion WIN 37 34 0 29826 29.937 0.032
2018-01-30 101% W.A.R.Outlaws LOSS 30 45 0 29826 29.937 0.032
2018-01-28 97% Chuck-Knuckles WIN 43 24 0 29826 29.937 0.032
2018-01-25 101% Havoc_Recon LOSS 23 45 0 29826 29.937 0.032
2018-01-22 99% HowlingWookie's DRAW 45 45 0 29826 29.937 0.032
2018-01-19 96% DONATIONS_HERE WIN 45 1 0 29826 29.937 0.032
2018-01-17 96% USA-Rebel-Adults WIN 43 23 0 29826 29.937 0.032
2018-01-15 87% Death_Striker WIN 45 42 +1 29825 29.936 0.032
2018-01-12 85% AnakinsNewOrder WIN 45 0 0 29825 29.936 0.032
2018-01-10 94% Brasil(RJ) DRAW 45 45 0 29825 29.936 0.032
2018-01-07 98% givethemnothing WIN 37 33 0 29825 29.936 0.032
2018-01-05 100% AUSSIE.REBELS WIN 32 27 0 29825 29.936 0.032
2018-01-03 98% OlderFolks WIN 45 44 0 29825 29.936 0.032
2017-12-31 84% ITALIANI WIN 42 35 +1 29824 29.935 0.032
2017-12-29 98% skulltrooperz WIN 37 31 0 29824 29.935 0.032
2017-12-27 97% Marauders-Zulu DRAW 45 45 0 29824 29.935 0.032
2017-12-24 95% __xwingfighters7 WIN 45 10 0 29824 29.935 0.032
2017-12-22 94% DejavuRazers WIN 45 17 0 29824 29.935 0.032
2017-12-19 98% Yoda's-Rebellion WIN 45 43 0 29824 29.935 0.032
2017-12-17 96% OBW.ELITE WIN 35 32 0 29824 29.935 0.032
2017-12-14 95% FulginKnights WIN 42 27 +1 29823 29.935 0.032
2017-12-12 99% havoc_agents DRAW 45 45 0 29823 29.935 0.032
2017-12-09 94% Theshield WIN 45 6 0 29823 29.935 0.032
2017-12-07 100% W.A.R.Heroes WIN 37 35 +18 29805 29.918 0.032
2017-12-04 97% German-X-Wings WIN 45 22 0 29805 29.918 0.032
2017-12-01 100% Elite_Jedi_Crew WIN 40 33 +31 29774 29.900 0.036
2017-11-29 97% OuterRimRioters WIN 45 11 0 29774 29.900 0.036
2017-11-27 99% 420;) WIN 45 44 0 29774 29.900 0.036
2017-11-23 101% Havoc_Recon LOSS 37 45 0 29774 29.900 0.036
2017-11-21 97% Snow-walkers WIN 45 25 0 29774 29.900 0.036
2017-11-18 96% RS-Force WIN 45 0 0 29774 29.900 0.036
2017-11-15 97% CamoDaisies WIN 45 24 0 29774 29.900 0.036
2017-11-12 91% sonsofanakin WIN 45 14 0 29774 29.900 0.036
2017-11-10 100% _NAMELESS_ LOSS 32 45 0 29774 29.900 0.036
2017-11-08 96% DejavuMayans WIN 45 37 0 29774 29.900 0.036
2017-11-05 97% Deathclerks WIN 45 29 0 29774 29.900 0.036
2017-11-03 101% Ackbar_Awakens LOSS 43 45 0 29774 29.900 0.036
2017-10-31 97% PiratesLife4me WIN 45 14 0 29774 29.900 0.036
2017-10-29 79% Jedi_Masters_ WIN 45 4 0 29774 29.900 0.036
2017-10-26 101% SithForceElite WIN 40 39 +125 29649 29.811 0.046
2017-10-23 98% jedi_wraith WIN 44 4 0 29649 29.811 0.046
2017-10-21 96% R2D2'sSquad WIN 45 0 0 29649 29.811 0.046
2017-10-18 98% .REPÚBLICA-JEDI. WIN 45 17 0 29649 29.811 0.046
2017-10-16 99% force:of:nature WIN 36 34 +1 29648 29.810 0.046
2017-10-13 100% BigLeagueChewie WIN 32 27 +92 29556 29.740 0.052
2017-10-11 93% thenewrebellion~ WIN 45 4 0 29556 29.740 0.052
2017-10-08 98% German•Imperium WIN 44 31 0 29556 29.740 0.052
2017-10-06 80% Red5Lounge WIN 45 0 0 29556 29.740 0.052
2017-10-03 98% Russian_League LOSS 40 45 -173 29729 29.969 0.068
2017-10-01 100% Italia-HanSolo2 DRAW 45 45 0 29729 29.969 0.068
2017-09-12 99% Sudamerican_jedi WIN 45 43 +12 29717 29.964 0.071
2017-09-09 99% PartylikeaBantha DRAW 38 38 +51 29666 29.945 0.080
2017-09-07 99% havoc_rebellion DRAW 45 45 0 29666 29.945 0.080
2017-09-04 98% PartylikeAckbar WIN 43 32 +5 29661 29.943 0.081
2017-09-02 100% JeDi LOSS 36 45 -67 29728 30.209 0.137
2017-08-31 97% Deathclerks DRAW 45 45 0 29728 30.209 0.137
2017-08-28 97% Giveandgettroops WIN 45 28 0 29728 30.209 0.137
2017-08-25 96% Rogue's_Gallery WIN 45 5 0 29728 30.209 0.137
2017-08-22 101% Spanish_Rebels_2 LOSS 20 45 +1 29727 30.210 0.138
2017-08-20 96% AustralianJedi WIN 40 4 0 29727 30.210 0.138
2017-08-18 98% RebelDonate WIN 29 21 0 29727 30.210 0.138
2017-08-16 100% Rogue-Squadron DRAW 45 45 0 29727 30.210 0.138
2017-08-14 99% ElvenRebels WIN 45 43 +74 29653 30.185 0.152
2017-08-11 97% Templar_Jedi DRAW 45 45 0 29653 30.185 0.152
2017-08-09 97% RancorRoughnecks WIN 43 3 0 29653 30.185 0.152
2017-08-07 98% Yoda'sMafia WIN 45 24 +71 29582 30.154 0.163
2017-08-04 98% 1st_ORDER4 WIN 45 36 +17 29565 30.149 0.167
2017-08-02 96% AustralianJedi WIN 43 17 0 29565 30.149 0.167
2017-07-31 97% RebelMischief WIN 45 22 0 29565 30.149 0.167
2017-07-28 94% THE.GIRONDIN'S WIN 44 7 0 29565 30.149 0.167
2017-07-26 98% A.Motley.Crew WIN 45 36 +59 29506 30.127 0.177
2017-07-24 100% havoc_mafia WIN 35 34 +267 29239 29.998 0.217
2017-07-21 99% GalacticDONATERS WIN 44 42 +84 29155 29.971 0.233
2017-07-19 91% U-JUSGot-Tbagged WIN 45 0 +2 29153 29.970 0.234
2017-07-17 98% batman3 WIN 37 25 +18 29135 29.967 0.238
2017-07-15 100% BattleRax LOSS 39 45 +19 29116 30.020 0.259
2017-07-13 98% Rey's_Raiders WIN 45 18 +100 29016 29.987 0.278
2017-07-10 100% Darth-Chaos WIN 40 23 +294 28722 29.868 0.327
2017-07-08 96% Romania-vigilant WIN 45 5 +122 28600 29.818 0.348
2017-07-06 97% The_Afterlife WIN 45 11 +39 28561 29.809 0.356
2017-07-04 98% 01Roguesquadron WIN 45 10 +112 28589 29.773 0.338
2017-07-01 99% EastCoastRaiders DRAW 45 45 0 28659 29.773 0.318
2017-06-29 101% PartyLikeLando LOSS 41 45 +26 28738 29.821 0.310
2017-06-26 101% Havoc_Recon LOSS 34 45 +48 28760 29.925 0.333
2017-06-24 99% n7eclipse WIN 45 17 +200 28577 29.847 0.363
2017-06-21 98% TheKrazyEighty8s WIN 45 23 +178 28504 29.782 0.365
2017-06-19 97% DONATe-ACTIVe WIN 45 2 +53 28742 29.911 0.334
2017-06-17 0% IngloriousRebėls LOSS 19 45 -15 28624 29.798 0.335
2017-06-14 94% Spaceraiders WIN 45 7 +10 28789 29.796 0.288
2017-06-12 99% Str8OuttaChaos WIN 33 19 +261 28598 29.686 0.311
2017-06-06 100% Dutch®Empire LOSS 38 40 +16 28687 29.779 0.312
2017-06-04 98% Galactictyphoon WIN 45 0 +90 28772 29.749 0.279
2017-06-02 100% Force_Unleashed LOSS 35 42 -24 28866 30.068 0.344
2017-05-30 99% German-BOLLWERK DRAW 45 45 0 28772 29.749 0.279
2017-05-28 98% JAPAN‐†帝国騎士団†‐ WIN 40 26 +20 28986 30.064 0.308
2017-05-26 108% Kenobi-Academy LOSS 34 45 0 28973 30.040 0.305
2017-05-24 98% 805th WIN 39 14 +83 28973 30.040 0.305
2017-05-21 98% INDONESIA.E.R.W DRAW 45 45 0 29113 30.040 0.265
2017-05-18 98% waldoville WIN 35 23 +19 29234 30.036 0.229
2017-05-16 96% mexico-jedis WIN 45 7 0 29339 30.036 0.199
2017-05-14 96% British Best WIN 34 22 0 29409 30.036 0.179
2017-05-11 96% BlackUnicorns WIN 43 5 0 29444 30.036 0.169
2017-05-09 108% Evil_Syndicate WIN 42 40 +587 28997 29.495 0.142
2017-05-07 100% FirstOrder,ODSTs LOSS 26 45 +13 28984 29.524 0.154
2017-05-04 100% BlackWingRage WIN 45 44 +163 28996 29.457 0.132
2017-05-02 0% DarthDarkness00 WIN 45 3 0 29066 29.457 0.112
2017-04-29 99% EliteRedSquad WIN 45 22 0 29171 29.457 0.082
2017-04-27 99% Dangerous777 WIN 45 17 0 29241 29.457 0.062
2017-04-25 98% Sith'n'Go WIN 45 38 0 29311 29.457 0.042
2017-04-22 99% GoW_GodzOfWar WIN 45 14 +10 29301 29.450 0.043
2017-04-19 98% Phantom_Enclave WIN 45 0 0 29441 29.450 0.003
2017-04-17 99% JabbaNoBatha WIN 42 17 0 29441 29.450 0.003
2017-04-13 98% Deutschland777 WIN 45 27 0 29441 29.450 0.003
2017-04-10 98% RiseOfTheRaven WIN 44 4 0 29441 29.450 0.003
2017-04-07 98% WalkingDead-MKL WIN 45 14 0 29441 29.450 0.003
2017-04-05 119% The_X_Squad LOSS 15 45 0 29441 29.450 0.003
2017-04-03 100% FILIPINO™FARMERS WIN 45 1 0 29441 29.450 0.003
2017-04-01 100% Canada.Edmonton WIN 42 21 0 29441 29.450 0.003
2017-03-30 100% Donate-n-Strike WIN 30 26 +8 29433 29.442 0.003
2017-03-27 105% ULTRAS-Reborn LOSS 21 45 0 29433 29.442 0.003
2017-03-25 100% American.Legion WIN 45 42 +4 29429 29.439 0.003
2017-03-22 110% Force_Unleashed LOSS 29 41 0 29429 29.439 0.003
2017-03-20 100% M.Y.T.H.2 WIN 45 12 +54 29375 29.388 0.004
2017-03-16 98% Rogue_Elite WIN 45 5 0 29375 29.388 0.004
2017-03-11 99% Ewok_revenge WIN 45 5 0 29375 29.388 0.004
2017-03-09 102% Elite-Chaos LOSS 42 45 0 29375 29.388 0.004
2017-03-06 101% NewSith'sOrder WIN 42 21 +29 29346 29.360 0.004
2017-03-02 101% Shadow☆Company2 WIN 45 16 +20 29326 29.341 0.004
2017-02-28 100% TatooWin44 WIN 45 2 0 29326 29.341 0.004
2017-02-25 99% Spartan_Rebels WIN 45 3 0 29326 29.341 0.004
2017-02-23 100% havoc_u4ea WIN 45 29 +18 29308 29.324 0.004
2017-02-20 100% PoRtuGaL WIN 45 0 0 29308 29.324 0.004
2017-02-18 96% DarthMyrmidon WIN 44 1 0 29308 29.324 0.004
2017-02-15 102% España-Rebels DRAW 45 45 0 29308 29.324 0.004
2017-02-13 97% JAPAN−Task−Force LOSS 32 34 -840 30148 30.286 0.039
2017-02-10 97% SITh WIN 45 28 0 30148 30.286 0.039
2017-02-07 100% PartylikeJediJoe LOSS 32 45 +1 30147 30.292 0.042
2017-02-05 97% HoldingTheLine WIN 44 33 0 30147 30.292 0.042
2017-02-03 103% ULTRAS-Reborn LOSS 44 45 0 30147 30.292 0.042
2017-01-31 99% Deutsch-Aktiv DRAW 45 45 0 30147 30.292 0.042
2017-01-29 98% Yodasghost WIN 24 9 0 30147 30.292 0.042
2017-01-27 99% SithForceElite LOSS 33 36 -27 30174 30.352 0.051
2017-01-24 98% Sith'ari-Council WIN 42 28 0 30174 30.352 0.051
2017-01-21 98% Elite_Champs DRAW 45 45 0 30174 30.352 0.051
2017-01-19 67% TaskforceViper WIN 45 0 0 30174 30.352 0.051
2017-01-15 97% Darksidedonation WIN 45 12 0 30174 30.352 0.051
2017-01-12 98% fishing_4_rebels WIN 40 23 0 30174 30.352 0.051
2017-01-10 96% IMPERO•SITH WIN 45 12 0 30174 30.352 0.051
2017-01-06 96% IMPERO•SITH WIN 45 4 0 30174 30.352 0.051
2017-01-04 97% Wolfpacknation WIN 45 5 0 30174 30.352 0.051
2017-01-01 100% Dark'FNX WIN 45 35 +10 30164 30.349 0.053
2016-12-29 96% Imp.Mavericks WIN 45 3 0 30164 30.349 0.053
2016-12-24 98% Han'sForce WIN 45 5 0 30164 30.349 0.053
2016-12-21 101% BrasilBrasukas WIN 34 30 +191 29973 30.207 0.067
2016-12-19 97% Strangelove WIN 45 13 0 29973 30.207 0.067
2016-12-16 98% UnifiedJedi WIN 42 0 0 29973 30.207 0.067
2016-12-14 99% waldoville WIN 45 44 0 29973 30.207 0.067
2016-12-11 101% Jedi_Remnant LOSS 34 35 +1 29972 30.208 0.067
2016-12-08 98% ALPHA-REBELLION WIN 45 19 0 29972 30.208 0.067
2016-12-06 99% German|Rebels WIN 33 32 +37 29935 30.190 0.073
2016-12-04 14% SithMidManager WIN 44 10 0 29935 30.190 0.073
2016-12-02 99% Blackwingrisque WIN 45 30 +1 29934 30.190 0.073
2016-11-29 97% RebelsDen WIN 45 15 0 29934 30.190 0.073
2016-11-27 98% Spanish-Alliance WIN 45 24 0 29934 30.190 0.073
2016-11-25 97% havoc_u4ea WIN 45 14 0 29934 30.190 0.073
2016-11-22 96% SithForceElite LOSS 41 45 -1,124 31058 31.985 0.265
2016-11-20 1% PoA-Virus WIN 45 15 +1 31057 31.984 0.265
2016-11-17 94% MiserySquad1E WIN 37 22 0 31057 31.984 0.265
2016-11-14 96% france WIN 45 16 0 31057 31.984 0.265
2016-11-12 95% Rebels_Templar WIN 45 28 0 31057 31.984 0.265
2016-11-10 105% Havoc_Sentinels LOSS 37 45 0 31057 31.984 0.265
2016-11-08 96% Sith-Society LOSS 36 42 -916 31973 33.800 0.522
2016-11-05 91% .REPÚBLICA-JEDI. WIN 45 23 0 31973 33.800 0.522
2016-10-31 0% DARKSID2 WIN 45 1 +10 31963 33.791 0.522
2016-10-28 95% JediRebellion WIN 45 41 +1 31962 33.791 0.522
2016-10-23 90% Xwingfalcons WIN 33 15 0 31962 33.791 0.522
2016-10-20 91% Aus-alliance WIN 45 8 0 31962 33.791 0.522
2016-10-17 101% SINGAPORE LOSS 44 45 -186 32148 35.639 0.997
2016-10-14 37% EMPIRe WIN 45 8 0 32148 35.639 0.997
2016-10-11 90% ROGUE-SCOUNDRELS WIN 45 22 +3 32145 35.638 0.998
2016-10-07 94% Ackbars_Admirals WIN 45 17 +6 32139 35.638 0.999
2016-10-05 89% BlackWing][Elite WIN 41 29 0 32139 35.638 0.999
2016-10-02 91% JawaOutpost WIN 44 27 0 32139 35.637 1.000
2016-09-25 88% France★R3born WIN 30 27 0 32139 35.637 1.000
2016-09-22 101% W.A.R.Outlaws LOSS 25 45 +113 32026 36.276 1.214
2016-09-17 90% Mings_Marauders WIN 45 9 0 32026 36.276 1.214
2016-09-10 74% HOUSEOFJEDI WIN 43 3 0 32026 36.276 1.214
2016-09-06 68% Darfkillers WIN 44 2 0 32026 36.276 1.214
2016-09-02 80% RebelsYell WIN 45 17 0 32026 36.276 1.214
2016-08-30 104% RebeIIion WIN 45 40 +2,324 29702 35.044 1.526
2016-08-21 95% Wolf-Battalion DRAW 45 45 0 29702 35.044 1.526
2016-08-15 98% Donation WIN 45 25 +2,117 27585 33.850 1.790
2016-08-11 87% Rogue_Enclave WIN 45 5 +385 27200 33.743 1.869
2016-08-08 111% Rebel'Command LOSS 37 45 +404 26796 34.482 2.196
2016-08-05 98% RUS•JEDI LOSS 41 45 -56 26852 36.715 2.818
2016-07-31 83% FreeAmerica WIN 45 2 +71 26781 36.702 2.835
2016-07-23 113% skyWalker WIN 41 33 +5,218 21563 34.328 3.647
2016-07-18 68% DoOrDieRideOrFly WIN 45 5 +143 21420 34.300 3.680
2016-07-15 47% SLNerfHerders WIN 44 9 +302 21118 34.225 3.745
2016-07-12 120% Jedi'Jawas WIN 45 29 +5,932 15186 31.797 4.746
2016-07-09 187% Rebel'Command LOSS 38 45 +1,485 13701 33.583 5.681
2016-06-27 100% SONS_OF_DEATH WIN 43 36 +8,081 5620 29.702 6.880
2016-06-24 100% TeamGibson WIN 38 32 +5,620 0 25.000 8.333
*Note: Wars from before June 22nd 2016 are not included.